Terminal Aerodrome Forecast
Issued by NWS Charleston, WV

Current Version | Previous Version | Graphics & Text | Print | Product List | Glossary On
Versions: 1 2 3 4 5 6 7 8 9 10 11 12 13 14 15 16 17 18 19 20 21
000
FTUS41 KRLX 220900 AAA
TAFHTS
TAF AMD
KHTS 220930Z 2210/2306 25005KT P6SM -SHRA OVC070
     FM221200 25007KT P6SM -SHRA OVC060
     FM221600 27008G13KT 5SM SHRA OVC040
     FM221700 27009G15KT P6SM BKN040=

USA.gov is the U.S. government's official web portal to all federal, state and local government web resources and services.